Warning: Javascript must be enabled to use all the features on this page!


Page Loading - Please Wait...

Click to hideNews Bulletins

Peak Streamflow for the Nation

USGS 01408500 Toms River near Toms River NJ

Ocean County, New Jersey
Hydrologic Unit Code 02040301
Latitude  39°59'11", Longitude  74°13'24" NAD83
Drainage area 123  square miles
Gage datum 8.10 feet above NGVD29
Output formats
Table
Graph
Tab-separated file
peakfq (watstore) format
Reselect output format
Water
Year
Date Gage
Height
(feet)
Stream-
flow
(cfs)
1929 1929-04-18 8.95 851
1930 1930-03-11 6.31 443
1931 1931-04-01 5.72 362
1932 1932-04-14 7.88 678
1933 1933-08-26 8.86 835
1934 1934-03-08 6.73 500
1935 1935-09-08 8.65 787
1936 1936-03-14 8.30 739
1937 1937-04-29 7.29 587
1938 1938-09-23 12.50 2,000
1939 1939-08-22 9.32 902
1940 1940-04-23 7.76 656
1941 1941-07-11 6.34 450
1942 1942-07-05 5.93 393
1943 1943-01-01 6.61 487
1944 1944-09-17 10.58 1,140
1945 1944-12-14 7.99 732
1946 1945-12-01 8.82 873
1947 1947-05-24 6.39 484
1948 1948-06-02 8.05 742
1949 1949-01-02 8.48 816
1950 1950-02-17 5.90 411
1951 1951-04-02 6.95 574
1952 1952-04-29 10.53 1,250
1953 1953-03-15 8.70 878
1954 1954-09-13 7.83 719
1955 1955-08-15 8.86 909
1956 1956-07-23 7.48 661
1957 1956-12-18 6.46 498
1958 1958-03-02 10.09 1,160
1959 1958-10-28 9.03 941
1960 1960-09-14 10.57 1,370
1961 1961-04-15 8.95 938
1962 1962-03-14 9.06 965
1963 1963-03-08 6.90 566
1964 1964-07-11 7.32 634
1965 1965-02-11 6.66 528
1966 1966-09-23 8.27 808
1967 1967-08-06 8.45 842
1968 1968-05-31 11.30 1,610
1969 1969-07-31 11.03 1,510
1970 1969-12-28 9.10 975
1971 1971-08-29 11.31 1,610
1972 1971-10-27 8.27 835
1973 1973-01-30 8.18 817
1974 1973-12-23 8.37 855
1975 1974-12-18   750
1976 1976-01-29 7.35 650
1977 1977-09-27 6.26 473
1978 1977-11-09 11.59 1,770
1979 1979-02-26 11.61 1,770
1980 1980-04-11 8.32 845
1981 1981-05-14 5.37 348
1982 1982-07-30 6.67 539
1983 1983-04-12 8.02 784
1984 1984-05-31 11.71 1,810
1985 1985-09-30 5.30 339
1986 1986-04-18 9.28 1,070
1987 1987-01-04 7.82 745
1988 1988-02-14 6.24 470
1989 1989-09-21 10.15 1,330
1990 1990-08-13 8.48 877
1991 1991-01-14 8.06 792
1992 1992-08-19 7.70 726
1993 1992-12-13 10.02 1,280
1994 1994-03-12 8.03 786
1995 1995-01-09 4.72 273
1996 1996-01-21 8.25 838
1997 1996-10-21 8.91 1,000
1998 1998-05-11 10.98 1,590
1999 1999-09-18 9.56 1,170
2000 2000-09-28 6.10 453
2001 2001-04-01 8.90 998
2002 2002-06-09 5.26 330
2003 2003-02-25 8.73 955
2004 2004-02-09 8.05 791
2005 2005-03-31 7.00 618
2006 2005-10-15 11.64 1,860
2007 2007-04-17 11.17 1,680
2008 2008-03-10 6.25 479
2009 2008-12-14 8.73 942
2010 2010-03-15 12.25 2,360
2011 2011-08-29 13.62 3,940
2012 2011-11-25 6.47 495
2013 2012-12-28 9.37 1,120
2014 2014-05-02 10.49 1,490
2015 2014-12-11 7.99 779
2016 2015-10-05 6.36 479
2017 2017-05-07 8.19 822
2018 2018-02-13 8.39 868
2019 2018-11-26 11.74 2,070
2020 2019-12-17 6.43 446